Time;durP1;ratioP1;P1;durP2;ratioP2;P2;SDS_P1;SDS_P2;PMS_P1;PMS_P2;Temp;Humidity;BMP_temperature;BMP_pressure;BME280_temperature;BME280_humidity;BME280_pressure;Samples;Min_cycle;Max_cycle;Signal;HPM_P1;HPM_P2
2023/06/17 21:00:42;;;;;;;5.30;3.90;;;;;;;25.14;50.23;100766.55;104927;1292;558012;-49
2023/06/17 21:03:11;;;;;;;4.60;3.60;;;;;;;26.27;47.08;100761.66;105954;1272;25357;-49
2023/06/17 21:05:39;;;;;;;5.80;3.60;;;;;;;26.44;46.62;100760.17;106173;1270;25322;-49
2023/06/17 21:08:06;;;;;;;5.10;3.20;;;;;;;26.47;46.54;100757.06;106229;1270;25325;-49
2023/06/17 21:10:33;;;;;;;6.00;4.00;;;;;;;26.53;46.11;100756.72;106259;1272;25324;-49
2023/06/17 21:13:00;;;;;;;5.20;3.70;;;;;;;26.58;45.92;100760.50;106092;1270;246532;-49
2023/06/17 21:15:27;;;;;;;5.10;3.30;;;;;;;26.64;45.95;100761.95;106263;1276;25579;-49
2023/06/17 21:17:54;;;;;;;5.40;3.60;;;;;;;26.65;45.98;100762.97;106310;1266;25376;-50
2023/06/17 21:20:21;;;;;;;7.40;4.00;;;;;;;26.50;46.53;100762.13;106324;1273;25488;-49
2023/06/17 21:22:49;;;;;;;6.70;3.70;;;;;;;26.67;46.15;100765.41;106277;1266;25340;-49
2023/06/17 21:25:16;;;;;;;5.20;3.70;;;;;;;26.74;46.09;100768.70;106364;1269;25417;-49
2023/06/17 21:27:43;;;;;;;8.20;3.80;;;;;;;26.78;46.15;100771.23;106365;1266;22611;-48
2023/06/17 21:30:11;;;;;;;5.10;3.70;;;;;;;26.79;46.32;100771.70;106255;1280;25338;-49
2023/06/17 21:32:38;;;;;;;4.70;3.70;;;;;;;26.79;46.48;100771.08;106322;1266;25452;-49
2023/06/17 21:35:05;;;;;;;8.10;4.00;;;;;;;26.79;46.66;100767.34;106228;1279;25340;-49
2023/06/17 21:37:33;;;;;;;4.80;4.00;;;;;;;26.80;47.11;100766.89;106320;1266;23287;-49
2023/06/17 21:40:00;;;;;;;5.60;4.30;;;;;;;26.80;47.41;100768.00;106279;1273;25340;-50
2023/06/17 21:42:27;;;;;;;6.40;4.10;;;;;;;26.81;47.54;100767.55;106371;1276;24214;-49
2023/06/17 21:44:54;;;;;;;8.30;4.40;;;;;;;26.82;47.77;100766.77;106270;1267;25322;-49
2023/06/17 21:47:21;;;;;;;8.30;4.70;;;;;;;26.83;47.83;100769.70;106319;1267;25332;-49
2023/06/17 21:49:48;;;;;;;5.70;4.30;;;;;;;26.77;48.04;100764.52;106435;1267;25417;-49
2023/06/17 21:52:15;;;;;;;8.20;4.90;;;;;;;26.63;48.58;100769.51;106333;1266;25369;-49
2023/06/17 21:54:43;;;;;;;8.30;4.30;;;;;;;26.78;48.28;100765.70;106945;1260;22526;-49
2023/06/17 21:57:10;;;;;;;6.50;4.70;;;;;;;26.88;48.19;100767.48;106737;1269;25359;-49
2023/06/17 21:59:37;;;;;;;8.20;4.70;;;;;;;26.92;48.27;100765.55;106741;1268;25405;-49
2023/06/17 22:02:04;;;;;;;8.80;4.80;;;;;;;26.76;48.72;100759.66;106803;1270;25353;-49
2023/06/17 22:04:31;;;;;;;9.50;4.50;;;;;;;26.67;49.21;100763.95;106802;1263;25346;-48
2023/06/17 22:06:58;;;;;;;6.80;4.70;;;;;;;26.65;49.66;100761.31;106720;1263;25365;-49
2023/06/17 22:09:26;;;;;;;8.00;4.80;;;;;;;26.82;49.78;100759.34;106796;1266;25385;-49
2023/06/17 22:11:53;;;;;;;7.10;4.80;;;;;;;26.88;50.15;100760.03;106848;1269;25505;-49
2023/06/17 22:14:20;;;;;;;7.70;4.80;;;;;;;26.90;50.57;100753.74;106769;1260;25321;-51
2023/06/17 22:16:47;;;;;;;9.20;4.60;;;;;;;26.88;50.86;100752.31;106795;1266;25399;-51
2023/06/17 22:19:14;;;;;;;6.70;4.70;;;;;;;26.87;51.22;100754.22;106622;1267;25322;-49
2023/06/17 22:21:42;;;;;;;5.80;4.70;;;;;;;26.88;51.26;100754.52;106345;1266;24286;-50
2023/06/17 22:24:10;;;;;;;6.20;4.90;;;;;;;26.90;51.62;100753.61;106574;1267;25335;-49
2023/06/17 22:26:38;;;;;;;5.70;4.40;;;;;;;26.91;52.12;100753.45;106753;1263;24186;-53
2023/06/17 22:29:05;;;;;;;8.50;4.90;;;;;;;26.92;52.70;100751.75;106885;1266;24391;-51
2023/06/17 22:31:32;;;;;;;7.90;5.20;;;;;;;26.77;54.05;100751.20;106615;1264;25481;-50
2023/06/17 22:33:59;;;;;;;6.50;5.10;;;;;;;26.91;54.37;100758.14;106832;1263;25815;-50
2023/06/17 22:36:26;;;;;;;8.90;5.00;;;;;;;26.96;54.73;100753.41;106784;1263;25409;-51
2023/06/17 22:38:52;;;;;;;6.40;4.60;;;;;;;26.97;54.98;100752.95;106707;1263;25335;-51
2023/06/17 22:41:20;;;;;;;8.10;4.70;;;;;;;26.90;53.86;100750.42;106678;1263;25318;-51
2023/06/17 22:43:46;;;;;;;6.00;4.70;;;;;;;26.99;51.61;100753.08;106637;1278;25417;-48
2023/06/17 22:46:13;;;;;;;5.10;4.40;;;;;;;27.03;49.99;100753.59;106729;1263;25397;-48
2023/06/17 22:48:42;;;;;;;8.70;4.00;;;;;;;27.07;49.17;100753.40;106824;1259;25513;-50
2023/06/17 22:51:09;;;;;;;6.40;4.30;;;;;;;26.99;49.61;100756.55;106872;1260;25347;-48
2023/06/17 22:53:36;;;;;;;6.30;4.70;;;;;;;26.90;50.70;100755.55;106724;1273;25322;-50
2023/06/17 22:56:04;;;;;;;6.00;4.40;;;;;;;26.95;50.94;100757.89;106824;1260;25325;-50
2023/06/17 22:58:32;;;;;;;5.50;4.60;;;;;;;27.05;50.78;100757.84;106831;1259;25376;-50
2023/06/17 23:00:59;;;;;;;9.40;4.60;;;;;;;27.14;50.20;100752.43;106751;1268;22534;-50
2023/06/17 23:03:26;;;;;;;5.40;4.40;;;;;;;27.15;50.18;100756.08;106765;1260;25443;-51
2023/06/17 23:05:53;;;;;;;5.20;4.50;;;;;;;27.15;49.11;100751.65;106688;1260;22997;-50
2023/06/17 23:08:20;;;;;;;5.90;4.60;;;;;;;27.15;49.00;100752.91;106707;1269;25353;-50
2023/06/17 23:10:47;;;;;;;6.40;5.10;;;;;;;27.15;48.99;100753.73;106802;1267;25343;-50
2023/06/17 23:13:14;;;;;;;7.30;5.50;;;;;;;27.17;49.09;100755.05;106773;1260;25379;-50
2023/06/17 23:15:41;;;;;;;8.30;5.50;;;;;;;27.17;49.35;100757.10;106792;1271;25626;-50
2023/06/17 23:18:08;;;;;;;7.80;5.50;;;;;;;27.16;49.81;100759.35;106879;1268;25338;-50
2023/06/17 23:20:35;;;;;;;6.00;5.40;;;;;;;27.14;50.36;100757.97;106853;1266;25396;-50
2023/06/17 23:23:03;;;;;;;8.30;5.80;;;;;;;27.12;50.43;100755.66;106862;1260;25361;-50
2023/06/17 23:25:32;;;;;;;7.90;5.70;;;;;;;27.09;49.95;100753.98;106760;1270;25350;-50
2023/06/17 23:27:59;;;;;;;7.60;5.40;;;;;;;27.06;49.38;100753.20;106760;1260;25308;-51
2023/06/17 23:30:27;;;;;;;8.70;5.60;;;;;;;27.04;48.84;100754.41;106777;1264;25462;-49
2023/06/17 23:32:55;;;;;;;6.50;5.40;;;;;;;27.02;49.05;100754.47;106795;1261;25367;-50
2023/06/17 23:35:22;;;;;;;6.90;5.50;;;;;;;26.98;49.16;100757.28;106838;1260;25353;-51
2023/06/17 23:37:50;;;;;;;7.30;6.00;;;;;;;26.95;49.20;100757.04;106672;1276;25408;-50
2023/06/17 23:40:17;;;;;;;11.90;6.60;;;;;;;26.90;49.33;100757.64;106801;1273;25343;-49
2023/06/17 23:42:44;;;;;;;8.40;5.80;;;;;;;26.87;49.29;100755.63;106792;1264;25350;-50
2023/06/17 23:45:14;;;;;;;8.10;5.90;;;;;;;26.83;49.46;100756.77;106901;1260;22522;-50
2023/06/17 23:47:41;;;;;;;7.50;5.50;;;;;;;26.71;49.74;100754.77;106698;1274;25350;-50
2023/06/17 23:50:08;;;;;;;7.90;6.20;;;;;;;26.69;49.83;100756.91;106900;1269;25334;-50
2023/06/17 23:52:35;;;;;;;7.10;6.00;;;;;;;26.64;49.84;100750.71;106735;1270;25350;-50
2023/06/17 23:55:03;;;;;;;12.00;5.70;;;;;;;26.60;50.06;100751.98;106818;1266;25369;-50
2023/06/17 23:57:30;;;;;;;9.40;5.20;;;;;;;26.57;50.18;100751.02;106799;1261;25350;-49
2023/06/17 23:59:57;;;;;;;5.80;4.90;;;;;;;26.54;50.07;100746.84;106734;1267;25340;-50
